sensor_id;sensor_type;location;lat;lon;timestamp;P1;durP1;ratioP1;P2;durP2;ratioP2
6406;SDS011;3236;51.022;6.818;2022-08-26T00:01:13;12.02;;;4.32;;
6406;SDS011;3236;51.022;6.818;2022-08-26T00:03:42;12.70;;;5.55;;
6406;SDS011;3236;51.022;6.818;2022-08-26T00:06:12;20.92;;;5.68;;
6406;SDS011;3236;51.022;6.818;2022-08-26T00:08:42;15.20;;;5.88;;
6406;SDS011;3236;51.022;6.818;2022-08-26T00:11:10;18.27;;;5.47;;
6406;SDS011;3236;51.022;6.818;2022-08-26T00:13:37;19.63;;;6.15;;
6406;SDS011;3236;51.022;6.818;2022-08-26T00:16:06;24.40;;;8.45;;
6406;SDS011;3236;51.022;6.818;2022-08-26T00:18:34;28.02;;;12.80;;
6406;SDS011;3236;51.022;6.818;2022-08-26T00:21:02;27.15;;;17.67;;
6406;SDS011;3236;51.022;6.818;2022-08-26T00:23:29;36.03;;;20.17;;
6406;SDS011;3236;51.022;6.818;2022-08-26T00:26:00;40.03;;;26.90;;
6406;SDS011;3236;51.022;6.818;2022-08-26T00:28:26;37.70;;;26.67;;
6406;SDS011;3236;51.022;6.818;2022-08-26T00:30:54;36.60;;;28.83;;
6406;SDS011;3236;51.022;6.818;2022-08-26T00:33:22;43.92;;;29.60;;
6406;SDS011;3236;51.022;6.818;2022-08-26T00:35:49;45.45;;;30.58;;
6406;SDS011;3236;51.022;6.818;2022-08-26T00:38:17;43.90;;;31.13;;
6406;SDS011;3236;51.022;6.818;2022-08-26T00:40:46;47.35;;;32.40;;
6406;SDS011;3236;51.022;6.818;2022-08-26T00:43:15;49.40;;;36.67;;
6406;SDS011;3236;51.022;6.818;2022-08-26T00:45:44;56.53;;;40.75;;
6406;SDS011;3236;51.022;6.818;2022-08-26T00:48:17;60.50;;;44.30;;
6406;SDS011;3236;51.022;6.818;2022-08-26T00:50:51;62.33;;;42.95;;
6406;SDS011;3236;51.022;6.818;2022-08-26T00:53:21;72.10;;;48.83;;
6406;SDS011;3236;51.022;6.818;2022-08-26T00:55:51;75.57;;;53.83;;
6406;SDS011;3236;51.022;6.818;2022-08-26T00:58:31;75.75;;;50.75;;
6406;SDS011;3236;51.022;6.818;2022-08-26T01:00:59;79.03;;;55.35;;
6406;SDS011;3236;51.022;6.818;2022-08-26T01:03:26;82.40;;;56.88;;
6406;SDS011;3236;51.022;6.818;2022-08-26T01:05:57;85.10;;;58.65;;
6406;SDS011;3236;51.022;6.818;2022-08-26T01:08:27;82.97;;;56.17;;
6406;SDS011;3236;51.022;6.818;2022-08-26T01:10:54;84.72;;;58.85;;
6406;SDS011;3236;51.022;6.818;2022-08-26T01:13:23;93.75;;;62.78;;
6406;SDS011;3236;51.022;6.818;2022-08-26T01:15:52;88.53;;;65.88;;
6406;SDS011;3236;51.022;6.818;2022-08-26T01:18:21;103.20;;;71.22;;
6406;SDS011;3236;51.022;6.818;2022-08-26T01:20:52;105.68;;;71.13;;
6406;SDS011;3236;51.022;6.818;2022-08-26T01:23:27;105.07;;;72.85;;
6406;SDS011;3236;51.022;6.818;2022-08-26T01:25:58;106.68;;;70.50;;
6406;SDS011;3236;51.022;6.818;2022-08-26T01:28:29;121.45;;;74.82;;
6406;SDS011;3236;51.022;6.818;2022-08-26T01:30:58;104.15;;;74.53;;
6406;SDS011;3236;51.022;6.818;2022-08-26T01:33:28;105.90;;;75.88;;
6406;SDS011;3236;51.022;6.818;2022-08-26T01:36:00;108.78;;;76.30;;
6406;SDS011;3236;51.022;6.818;2022-08-26T01:38:30;105.72;;;73.95;;
6406;SDS011;3236;51.022;6.818;2022-08-26T01:40:57;106.78;;;75.97;;
6406;SDS011;3236;51.022;6.818;2022-08-26T01:43:25;116.35;;;74.13;;
6406;SDS011;3236;51.022;6.818;2022-08-26T01:45:54;104.05;;;71.40;;
6406;SDS011;3236;51.022;6.818;2022-08-26T01:48:22;103.38;;;67.72;;
6406;SDS011;3236;51.022;6.818;2022-08-26T01:50:53;103.57;;;67.97;;
6406;SDS011;3236;51.022;6.818;2022-08-26T01:53:24;103.60;;;73.20;;
6406;SDS011;3236;51.022;6.818;2022-08-26T01:55:54;103.03;;;70.95;;
6406;SDS011;3236;51.022;6.818;2022-08-26T01:58:25;95.63;;;66.82;;
6406;SDS011;3236;51.022;6.818;2022-08-26T02:00:56;101.78;;;68.70;;
6406;SDS011;3236;51.022;6.818;2022-08-26T02:03:23;114.00;;;71.32;;
6406;SDS011;3236;51.022;6.818;2022-08-26T02:05:53;102.50;;;69.20;;
6406;SDS011;3236;51.022;6.818;2022-08-26T02:08:22;99.05;;;66.38;;
6406;SDS011;3236;51.022;6.818;2022-08-26T02:13:37;97.47;;;67.55;;
6406;SDS011;3236;51.022;6.818;2022-08-26T02:16:08;90.18;;;64.63;;
6406;SDS011;3236;51.022;6.818;2022-08-26T02:18:37;96.03;;;67.90;;
6406;SDS011;3236;51.022;6.818;2022-08-26T02:21:06;93.22;;;65.00;;
6406;SDS011;3236;51.022;6.818;2022-08-26T02:23:35;91.28;;;61.33;;
6406;SDS011;3236;51.022;6.818;2022-08-26T02:26:04;86.28;;;62.85;;
6406;SDS011;3236;51.022;6.818;2022-08-26T02:28:37;82.80;;;58.13;;
6406;SDS011;3236;51.022;6.818;2022-08-26T02:31:06;93.50;;;61.75;;
6406;SDS011;3236;51.022;6.818;2022-08-26T02:33:33;83.90;;;59.42;;
6406;SDS011;3236;51.022;6.818;2022-08-26T02:36:02;84.18;;;59.33;;
6406;SDS011;3236;51.022;6.818;2022-08-26T02:38:30;91.72;;;59.78;;
6406;SDS011;3236;51.022;6.818;2022-08-26T02:40:57;92.75;;;61.65;;
6406;SDS011;3236;51.022;6.818;2022-08-26T02:43:24;89.45;;;58.50;;
6406;SDS011;3236;51.022;6.818;2022-08-26T02:45:53;81.40;;;57.45;;
6406;SDS011;3236;51.022;6.818;2022-08-26T02:48:20;80.57;;;56.08;;
6406;SDS011;3236;51.022;6.818;2022-08-26T02:50:48;82.25;;;58.35;;
6406;SDS011;3236;51.022;6.818;2022-08-26T02:53:15;87.75;;;56.47;;
6406;SDS011;3236;51.022;6.818;2022-08-26T02:55:42;81.13;;;56.35;;
6406;SDS011;3236;51.022;6.818;2022-08-26T02:58:13;82.30;;;55.33;;
6406;SDS011;3236;51.022;6.818;2022-08-26T03:00:40;77.28;;;53.75;;
6406;SDS011;3236;51.022;6.818;2022-08-26T03:03:09;80.13;;;56.17;;
6406;SDS011;3236;51.022;6.818;2022-08-26T03:05:36;80.43;;;53.05;;
6406;SDS011;3236;51.022;6.818;2022-08-26T03:08:03;77.95;;;52.40;;
6406;SDS011;3236;51.022;6.818;2022-08-26T03:10:30;80.05;;;54.70;;
6406;SDS011;3236;51.022;6.818;2022-08-26T03:12:57;77.47;;;53.33;;
6406;SDS011;3236;51.022;6.818;2022-08-26T03:15:25;76.95;;;51.88;;
6406;SDS011;3236;51.022;6.818;2022-08-26T03:17:53;76.00;;;51.40;;
6406;SDS011;3236;51.022;6.818;2022-08-26T03:20:22;70.03;;;50.65;;
6406;SDS011;3236;51.022;6.818;2022-08-26T03:22:50;79.50;;;50.03;;
6406;SDS011;3236;51.022;6.818;2022-08-26T03:25:18;77.95;;;50.17;;
6406;SDS011;3236;51.022;6.818;2022-08-26T03:27:45;69.47;;;48.60;;
6406;SDS011;3236;51.022;6.818;2022-08-26T03:30:13;73.15;;;47.65;;
6406;SDS011;3236;51.022;6.818;2022-08-26T03:32:59;72.05;;;46.92;;
6406;SDS011;3236;51.022;6.818;2022-08-26T03:35:27;69.90;;;46.72;;
6406;SDS011;3236;51.022;6.818;2022-08-26T03:37:55;74.63;;;45.35;;
6406;SDS011;3236;51.022;6.818;2022-08-26T03:40:22;73.90;;;46.15;;
6406;SDS011;3236;51.022;6.818;2022-08-26T03:42:52;71.15;;;45.05;;
6406;SDS011;3236;51.022;6.818;2022-08-26T03:45:19;69.25;;;44.33;;
6406;SDS011;3236;51.022;6.818;2022-08-26T03:47:46;68.13;;;43.78;;
6406;SDS011;3236;51.022;6.818;2022-08-26T03:50:15;63.58;;;42.55;;
6406;SDS011;3236;51.022;6.818;2022-08-26T03:52:44;62.78;;;42.05;;
6406;SDS011;3236;51.022;6.818;2022-08-26T03:55:16;63.13;;;39.83;;
6406;SDS011;3236;51.022;6.818;2022-08-26T03:57:43;60.75;;;39.08;;
6406;SDS011;3236;51.022;6.818;2022-08-26T04:00:11;58.90;;;38.22;;
6406;SDS011;3236;51.022;6.818;2022-08-26T04:02:43;64.55;;;40.63;;
6406;SDS011;3236;51.022;6.818;2022-08-26T04:05:12;55.60;;;37.40;;
6406;SDS011;3236;51.022;6.818;2022-08-26T04:07:41;63.08;;;39.67;;
6406;SDS011;3236;51.022;6.818;2022-08-26T04:10:11;62.42;;;38.25;;
6406;SDS011;3236;51.022;6.818;2022-08-26T04:12:42;54.78;;;38.13;;
6406;SDS011;3236;51.022;6.818;2022-08-26T04:15:10;52.55;;;39.15;;
6406;SDS011;3236;51.022;6.818;2022-08-26T04:17:39;59.70;;;36.40;;
6406;SDS011;3236;51.022;6.818;2022-08-26T04:20:07;56.95;;;35.17;;
6406;SDS011;3236;51.022;6.818;2022-08-26T04:22:38;52.67;;;35.35;;
6406;SDS011;3236;51.022;6.818;2022-08-26T04:25:06;56.75;;;37.15;;
6406;SDS011;3236;51.022;6.818;2022-08-26T04:27:35;48.22;;;34.65;;
6406;SDS011;3236;51.022;6.818;2022-08-26T04:30:03;60.85;;;36.15;;
6406;SDS011;3236;51.022;6.818;2022-08-26T04:32:30;48.03;;;33.38;;
6406;SDS011;3236;51.022;6.818;2022-08-26T04:34:57;49.28;;;34.35;;
6406;SDS011;3236;51.022;6.818;2022-08-26T04:37:24;42.72;;;33.28;;
6406;SDS011;3236;51.022;6.818;2022-08-26T04:39:52;46.13;;;33.15;;
6406;SDS011;3236;51.022;6.818;2022-08-26T04:42:19;49.65;;;32.25;;
6406;SDS011;3236;51.022;6.818;2022-08-26T04:44:47;45.47;;;32.67;;
6406;SDS011;3236;51.022;6.818;2022-08-26T04:47:14;47.88;;;31.80;;
6406;SDS011;3236;51.022;6.818;2022-08-26T04:49:42;53.90;;;31.95;;
6406;SDS011;3236;51.022;6.818;2022-08-26T04:52:09;52.58;;;31.00;;
6406;SDS011;3236;51.022;6.818;2022-08-26T04:54:36;47.47;;;29.50;;
6406;SDS011;3236;51.022;6.818;2022-08-26T04:57:03;44.30;;;30.33;;
6406;SDS011;3236;51.022;6.818;2022-08-26T04:59:31;47.83;;;29.40;;
6406;SDS011;3236;51.022;6.818;2022-08-26T05:01:59;41.85;;;27.55;;
6406;SDS011;3236;51.022;6.818;2022-08-26T05:04:27;39.05;;;27.42;;
6406;SDS011;3236;51.022;6.818;2022-08-26T05:06:55;41.20;;;26.80;;
6406;SDS011;3236;51.022;6.818;2022-08-26T05:09:25;39.25;;;26.23;;
6406;SDS011;3236;51.022;6.818;2022-08-26T05:11:52;37.20;;;25.23;;
6406;SDS011;3236;51.022;6.818;2022-08-26T05:14:19;37.42;;;23.77;;
6406;SDS011;3236;51.022;6.818;2022-08-26T05:16:47;33.17;;;23.35;;
6406;SDS011;3236;51.022;6.818;2022-08-26T05:19:15;37.30;;;24.45;;
6406;SDS011;3236;51.022;6.818;2022-08-26T05:21:43;34.53;;;23.08;;
6406;SDS011;3236;51.022;6.818;2022-08-26T05:24:10;35.00;;;23.30;;
6406;SDS011;3236;51.022;6.818;2022-08-26T05:26:37;36.08;;;22.20;;
6406;SDS011;3236;51.022;6.818;2022-08-26T05:29:05;36.92;;;22.17;;
6406;SDS011;3236;51.022;6.818;2022-08-26T05:31:32;35.88;;;20.67;;
6406;SDS011;3236;51.022;6.818;2022-08-26T05:34:01;27.55;;;19.08;;
6406;SDS011;3236;51.022;6.818;2022-08-26T05:36:30;28.88;;;19.38;;
6406;SDS011;3236;51.022;6.818;2022-08-26T05:38:59;29.87;;;18.60;;
6406;SDS011;3236;51.022;6.818;2022-08-26T05:41:28;31.48;;;18.85;;
6406;SDS011;3236;51.022;6.818;2022-08-26T05:43:57;25.80;;;18.08;;
6406;SDS011;3236;51.022;6.818;2022-08-26T05:46:26;25.25;;;19.20;;
6406;SDS011;3236;51.022;6.818;2022-08-26T05:48:54;32.55;;;17.58;;
6406;SDS011;3236;51.022;6.818;2022-08-26T05:51:22;31.02;;;17.50;;
6406;SDS011;3236;51.022;6.818;2022-08-26T05:53:51;28.55;;;17.30;;
6406;SDS011;3236;51.022;6.818;2022-08-26T05:56:18;30.58;;;16.30;;
6406;SDS011;3236;51.022;6.818;2022-08-26T05:58:48;24.55;;;16.48;;
6406;SDS011;3236;51.022;6.818;2022-08-26T06:01:16;21.17;;;14.27;;
6406;SDS011;3236;51.022;6.818;2022-08-26T06:03:46;24.33;;;14.23;;
6406;SDS011;3236;51.022;6.818;2022-08-26T06:06:17;19.97;;;12.80;;
6406;SDS011;3236;51.022;6.818;2022-08-26T06:08:45;24.63;;;13.98;;
6406;SDS011;3236;51.022;6.818;2022-08-26T06:11:15;18.92;;;13.32;;
6406;SDS011;3236;51.022;6.818;2022-08-26T06:13:43;21.45;;;12.05;;
6406;SDS011;3236;51.022;6.818;2022-08-26T06:16:12;18.65;;;12.25;;
6406;SDS011;3236;51.022;6.818;2022-08-26T06:18:41;20.75;;;13.27;;
6406;SDS011;3236;51.022;6.818;2022-08-26T06:21:11;27.77;;;13.75;;
6406;SDS011;3236;51.022;6.818;2022-08-26T06:23:38;22.83;;;12.88;;
6406;SDS011;3236;51.022;6.818;2022-08-26T06:26:25;24.83;;;13.45;;
6406;SDS011;3236;51.022;6.818;2022-08-26T06:28:52;18.63;;;12.02;;
6406;SDS011;3236;51.022;6.818;2022-08-26T06:31:19;17.63;;;12.55;;
6406;SDS011;3236;51.022;6.818;2022-08-26T06:33:46;21.95;;;12.65;;
6406;SDS011;3236;51.022;6.818;2022-08-26T06:36:16;21.75;;;12.07;;
6406;SDS011;3236;51.022;6.818;2022-08-26T06:38:45;22.15;;;11.00;;
6406;SDS011;3236;51.022;6.818;2022-08-26T06:41:13;17.13;;;11.55;;
6406;SDS011;3236;51.022;6.818;2022-08-26T06:43:42;18.58;;;11.10;;
6406;SDS011;3236;51.022;6.818;2022-08-26T06:46:10;23.95;;;12.57;;
6406;SDS011;3236;51.022;6.818;2022-08-26T06:48:38;16.77;;;11.50;;
6406;SDS011;3236;51.022;6.818;2022-08-26T06:51:07;13.95;;;11.07;;
6406;SDS011;3236;51.022;6.818;2022-08-26T06:53:35;16.48;;;10.68;;
6406;SDS011;3236;51.022;6.818;2022-08-26T06:56:03;22.00;;;11.25;;
6406;SDS011;3236;51.022;6.818;2022-08-26T06:58:32;16.98;;;10.55;;
6406;SDS011;3236;51.022;6.818;2022-08-26T07:01:04;21.45;;;10.57;;
6406;SDS011;3236;51.022;6.818;2022-08-26T07:03:41;18.05;;;11.20;;
6406;SDS011;3236;51.022;6.818;2022-08-26T07:06:08;19.08;;;11.13;;
6406;SDS011;3236;51.022;6.818;2022-08-26T07:08:35;21.38;;;10.88;;
6406;SDS011;3236;51.022;6.818;2022-08-26T07:11:03;17.55;;;10.80;;
6406;SDS011;3236;51.022;6.818;2022-08-26T07:13:31;18.65;;;10.15;;
6406;SDS011;3236;51.022;6.818;2022-08-26T07:16:03;25.85;;;9.80;;
6406;SDS011;3236;51.022;6.818;2022-08-26T07:18:31;14.55;;;9.55;;
6406;SDS011;3236;51.022;6.818;2022-08-26T07:21:00;20.25;;;9.30;;
6406;SDS011;3236;51.022;6.818;2022-08-26T07:23:27;17.50;;;9.75;;
6406;SDS011;3236;51.022;6.818;2022-08-26T07:25:55;16.25;;;11.05;;
6406;SDS011;3236;51.022;6.818;2022-08-26T07:28:22;20.30;;;11.95;;
6406;SDS011;3236;51.022;6.818;2022-08-26T07:30:49;19.58;;;10.55;;
6406;SDS011;3236;51.022;6.818;2022-08-26T07:33:18;17.35;;;9.27;;
6406;SDS011;3236;51.022;6.818;2022-08-26T07:35:45;17.70;;;9.13;;
6406;SDS011;3236;51.022;6.818;2022-08-26T07:38:12;15.27;;;10.27;;
6406;SDS011;3236;51.022;6.818;2022-08-26T07:40:39;17.02;;;10.27;;
6406;SDS011;3236;51.022;6.818;2022-08-26T07:43:06;22.63;;;10.00;;
6406;SDS011;3236;51.022;6.818;2022-08-26T07:45:34;15.32;;;9.70;;
6406;SDS011;3236;51.022;6.818;2022-08-26T07:48:02;20.52;;;11.30;;
6406;SDS011;3236;51.022;6.818;2022-08-26T07:50:31;18.33;;;11.23;;
6406;SDS011;3236;51.022;6.818;2022-08-26T07:52:59;21.65;;;10.85;;
6406;SDS011;3236;51.022;6.818;2022-08-26T07:55:27;17.63;;;11.07;;
6406;SDS011;3236;51.022;6.818;2022-08-26T07:57:54;15.43;;;11.68;;
6406;SDS011;3236;51.022;6.818;2022-08-26T08:00:25;19.67;;;12.02;;
6406;SDS011;3236;51.022;6.818;2022-08-26T08:02:57;17.85;;;11.80;;
6406;SDS011;3236;51.022;6.818;2022-08-26T08:05:24;17.75;;;12.68;;
6406;SDS011;3236;51.022;6.818;2022-08-26T08:07:56;22.08;;;12.63;;
6406;SDS011;3236;51.022;6.818;2022-08-26T08:12:51;19.88;;;11.90;;
6406;SDS011;3236;51.022;6.818;2022-08-26T08:15:19;18.02;;;12.30;;
6406;SDS011;3236;51.022;6.818;2022-08-26T08:17:49;15.43;;;12.07;;
6406;SDS011;3236;51.022;6.818;2022-08-26T08:20:16;17.98;;;12.63;;
6406;SDS011;3236;51.022;6.818;2022-08-26T08:22:43;16.85;;;12.25;;
6406;SDS011;3236;51.022;6.818;2022-08-26T08:25:11;20.40;;;12.85;;
6406;SDS011;3236;51.022;6.818;2022-08-26T08:27:40;19.30;;;11.82;;
6406;SDS011;3236;51.022;6.818;2022-08-26T08:30:09;20.83;;;12.38;;
6406;SDS011;3236;51.022;6.818;2022-08-26T08:32:37;20.35;;;11.57;;
6406;SDS011;3236;51.022;6.818;2022-08-26T08:35:06;19.45;;;10.25;;
6406;SDS011;3236;51.022;6.818;2022-08-26T08:37:34;13.88;;;9.82;;
6406;SDS011;3236;51.022;6.818;2022-08-26T08:40:04;15.48;;;10.25;;
6406;SDS011;3236;51.022;6.818;2022-08-26T08:42:36;17.77;;;9.43;;
6406;SDS011;3236;51.022;6.818;2022-08-26T08:45:09;13.00;;;9.93;;
6406;SDS011;3236;51.022;6.818;2022-08-26T08:47:40;22.15;;;10.63;;
6406;SDS011;3236;51.022;6.818;2022-08-26T08:50:15;16.13;;;10.85;;
6406;SDS011;3236;51.022;6.818;2022-08-26T08:52:47;14.75;;;8.98;;
6406;SDS011;3236;51.022;6.818;2022-08-26T08:55:35;16.90;;;9.73;;
6406;SDS011;3236;51.022;6.818;2022-08-26T08:58:11;14.15;;;8.52;;
6406;SDS011;3236;51.022;6.818;2022-08-26T09:00:44;16.23;;;8.43;;
6406;SDS011;3236;51.022;6.818;2022-08-26T09:03:18;18.23;;;9.60;;
6406;SDS011;3236;51.022;6.818;2022-08-26T09:05:54;15.75;;;10.38;;
6406;SDS011;3236;51.022;6.818;2022-08-26T09:08:26;15.63;;;9.77;;
6406;SDS011;3236;51.022;6.818;2022-08-26T09:10:59;15.23;;;8.88;;
6406;SDS011;3236;51.022;6.818;2022-08-26T09:13:28;13.20;;;8.50;;
6406;SDS011;3236;51.022;6.818;2022-08-26T09:15:59;13.30;;;9.32;;
6406;SDS011;3236;51.022;6.818;2022-08-26T09:18:37;20.60;;;10.20;;
6406;SDS011;3236;51.022;6.818;2022-08-26T09:21:14;14.65;;;8.50;;
6406;SDS011;3236;51.022;6.818;2022-08-26T09:23:43;10.50;;;8.38;;
6406;SDS011;3236;51.022;6.818;2022-08-26T09:26:13;12.80;;;8.65;;
6406;SDS011;3236;51.022;6.818;2022-08-26T09:28:44;24.80;;;8.88;;
6406;SDS011;3236;51.022;6.818;2022-08-26T09:31:13;17.15;;;8.95;;
6406;SDS011;3236;51.022;6.818;2022-08-26T09:33:46;16.52;;;9.57;;
6406;SDS011;3236;51.022;6.818;2022-08-26T09:36:15;16.42;;;8.93;;
6406;SDS011;3236;51.022;6.818;2022-08-26T09:38:47;12.27;;;7.97;;
6406;SDS011;3236;51.022;6.818;2022-08-26T09:41:19;20.48;;;8.10;;
6406;SDS011;3236;51.022;6.818;2022-08-26T09:46:45;17.23;;;7.03;;
6406;SDS011;3236;51.022;6.818;2022-08-26T09:49:23;14.35;;;6.85;;
6406;SDS011;3236;51.022;6.818;2022-08-26T09:52:05;14.07;;;7.30;;
6406;SDS011;3236;51.022;6.818;2022-08-26T09:54:33;16.05;;;7.57;;
6406;SDS011;3236;51.022;6.818;2022-08-26T09:59:54;10.88;;;6.10;;
6406;SDS011;3236;51.022;6.818;2022-08-26T10:05:08;8.73;;;5.63;;
6406;SDS011;3236;51.022;6.818;2022-08-26T10:07:43;11.38;;;5.40;;
6406;SDS011;3236;51.022;6.818;2022-08-26T10:12:48;11.65;;;5.50;;
6406;SDS011;3236;51.022;6.818;2022-08-26T10:17:47;13.23;;;5.70;;
6406;SDS011;3236;51.022;6.818;2022-08-26T10:20:19;14.02;;;5.13;;
6406;SDS011;3236;51.022;6.818;2022-08-26T10:22:54;8.65;;;5.88;;
6406;SDS011;3236;51.022;6.818;2022-08-26T10:25:27;11.70;;;6.05;;
6406;SDS011;3236;51.022;6.818;2022-08-26T10:28:03;7.70;;;4.90;;
6406;SDS011;3236;51.022;6.818;2022-08-26T10:30:36;7.95;;;4.80;;
6406;SDS011;3236;51.022;6.818;2022-08-26T10:33:11;10.98;;;4.70;;
6406;SDS011;3236;51.022;6.818;2022-08-26T10:35:40;8.95;;;4.43;;
6406;SDS011;3236;51.022;6.818;2022-08-26T10:38:17;7.68;;;4.28;;
6406;SDS011;3236;51.022;6.818;2022-08-26T10:40:50;10.27;;;5.18;;
6406;SDS011;3236;51.022;6.818;2022-08-26T10:43:21;9.63;;;4.80;;
6406;SDS011;3236;51.022;6.818;2022-08-26T10:45:55;9.48;;;4.20;;
6406;SDS011;3236;51.022;6.818;2022-08-26T10:48:29;10.88;;;4.40;;
6406;SDS011;3236;51.022;6.818;2022-08-26T10:51:07;11.48;;;4.47;;
6406;SDS011;3236;51.022;6.818;2022-08-26T10:53:39;10.32;;;3.90;;
6406;SDS011;3236;51.022;6.818;2022-08-26T10:56:14;8.63;;;3.67;;
6406;SDS011;3236;51.022;6.818;2022-08-26T10:58:54;9.18;;;4.03;;
6406;SDS011;3236;51.022;6.818;2022-08-26T11:01:30;11.57;;;4.60;;
6406;SDS011;3236;51.022;6.818;2022-08-26T11:04:17;9.65;;;4.53;;
6406;SDS011;3236;51.022;6.818;2022-08-26T11:09:52;9.98;;;3.85;;
6406;SDS011;3236;51.022;6.818;2022-08-26T11:18:37;10.00;;;4.03;;
6406;SDS011;3236;51.022;6.818;2022-08-26T11:24:08;10.20;;;3.80;;
6406;SDS011;3236;51.022;6.818;2022-08-26T11:27:07;11.98;;;4.35;;
6406;SDS011;3236;51.022;6.818;2022-08-26T11:32:22;13.68;;;4.07;;
6406;SDS011;3236;51.022;6.818;2022-08-26T11:34:53;6.32;;;3.20;;
6406;SDS011;3236;51.022;6.818;2022-08-26T11:37:25;8.02;;;3.53;;
6406;SDS011;3236;51.022;6.818;2022-08-26T11:39:57;9.13;;;3.90;;
6406;SDS011;3236;51.022;6.818;2022-08-26T11:42:28;7.32;;;3.95;;
6406;SDS011;3236;51.022;6.818;2022-08-26T11:44:59;9.63;;;3.50;;
6406;SDS011;3236;51.022;6.818;2022-08-26T11:47:39;8.32;;;3.78;;
6406;SDS011;3236;51.022;6.818;2022-08-26T11:50:09;11.85;;;3.47;;
6406;SDS011;3236;51.022;6.818;2022-08-26T11:52:49;8.15;;;3.22;;
6406;SDS011;3236;51.022;6.818;2022-08-26T11:55:20;7.72;;;3.63;;
6406;SDS011;3236;51.022;6.818;2022-08-26T11:57:49;6.70;;;3.25;;
6406;SDS011;3236;51.022;6.818;2022-08-26T12:00:19;6.88;;;2.95;;
6406;SDS011;3236;51.022;6.818;2022-08-26T12:02:48;10.38;;;3.33;;
6406;SDS011;3236;51.022;6.818;2022-08-26T12:05:23;9.82;;;3.58;;
6406;SDS011;3236;51.022;6.818;2022-08-26T12:07:54;11.57;;;2.90;;
6406;SDS011;3236;51.022;6.818;2022-08-26T12:10:27;11.13;;;2.85;;
6406;SDS011;3236;51.022;6.818;2022-08-26T12:12:57;12.98;;;2.97;;
6406;SDS011;3236;51.022;6.818;2022-08-26T12:15:27;8.93;;;2.85;;
6406;SDS011;3236;51.022;6.818;2022-08-26T12:17:56;7.22;;;3.15;;
6406;SDS011;3236;51.022;6.818;2022-08-26T12:20:30;12.25;;;2.80;;
6406;SDS011;3236;51.022;6.818;2022-08-26T12:23:22;7.90;;;2.97;;
6406;SDS011;3236;51.022;6.818;2022-08-26T12:25:51;10.10;;;2.85;;
6406;SDS011;3236;51.022;6.818;2022-08-26T12:28:31;9.80;;;3.00;;
6406;SDS011;3236;51.022;6.818;2022-08-26T12:30:58;12.00;;;3.13;;
6406;SDS011;3236;51.022;6.818;2022-08-26T12:33:27;6.88;;;2.85;;
6406;SDS011;3236;51.022;6.818;2022-08-26T12:35:57;8.93;;;3.03;;
6406;SDS011;3236;51.022;6.818;2022-08-26T12:38:27;9.57;;;3.20;;
6406;SDS011;3236;51.022;6.818;2022-08-26T12:40:58;10.00;;;3.17;;
6406;SDS011;3236;51.022;6.818;2022-08-26T12:43:35;9.98;;;3.25;;
6406;SDS011;3236;51.022;6.818;2022-08-26T12:46:14;5.28;;;2.53;;
6406;SDS011;3236;51.022;6.818;2022-08-26T12:48:46;10.27;;;3.00;;
6406;SDS011;3236;51.022;6.818;2022-08-26T12:51:25;12.18;;;3.67;;
6406;SDS011;3236;51.022;6.818;2022-08-26T12:53:54;8.30;;;3.30;;
6406;SDS011;3236;51.022;6.818;2022-08-26T12:56:26;12.00;;;2.78;;
6406;SDS011;3236;51.022;6.818;2022-08-26T12:59:04;11.05;;;2.53;;
6406;SDS011;3236;51.022;6.818;2022-08-26T13:01:38;7.07;;;3.30;;
6406;SDS011;3236;51.022;6.818;2022-08-26T13:07:16;6.88;;;2.72;;
6406;SDS011;3236;51.022;6.818;2022-08-26T13:09:47;10.57;;;2.22;;
6406;SDS011;3236;51.022;6.818;2022-08-26T13:12:22;11.50;;;2.30;;
6406;SDS011;3236;51.022;6.818;2022-08-26T13:14:51;8.82;;;2.75;;
6406;SDS011;3236;51.022;6.818;2022-08-26T13:17:18;12.73;;;3.45;;
6406;SDS011;3236;51.022;6.818;2022-08-26T13:19:53;7.80;;;2.25;;
6406;SDS011;3236;51.022;6.818;2022-08-26T13:22:22;6.43;;;2.60;;
6406;SDS011;3236;51.022;6.818;2022-08-26T13:24:50;11.50;;;2.13;;
6406;SDS011;3236;51.022;6.818;2022-08-26T13:27:23;7.15;;;2.25;;
6406;SDS011;3236;51.022;6.818;2022-08-26T13:29:51;6.88;;;2.03;;
6406;SDS011;3236;51.022;6.818;2022-08-26T13:32:20;4.97;;;2.33;;
6406;SDS011;3236;51.022;6.818;2022-08-26T13:34:48;11.80;;;3.25;;
6406;SDS011;3236;51.022;6.818;2022-08-26T13:37:18;10.70;;;2.53;;
6406;SDS011;3236;51.022;6.818;2022-08-26T13:39:47;5.60;;;2.92;;
6406;SDS011;3236;51.022;6.818;2022-08-26T13:42:15;9.50;;;2.70;;
6406;SDS011;3236;51.022;6.818;2022-08-26T13:44:43;8.15;;;2.90;;
6406;SDS011;3236;51.022;6.818;2022-08-26T13:47:13;6.68;;;2.22;;
6406;SDS011;3236;51.022;6.818;2022-08-26T13:49:44;13.48;;;2.80;;
6406;SDS011;3236;51.022;6.818;2022-08-26T13:52:12;7.35;;;2.80;;
6406;SDS011;3236;51.022;6.818;2022-08-26T13:54:45;5.43;;;2.38;;
6406;SDS011;3236;51.022;6.818;2022-08-26T13:57:14;8.40;;;2.63;;
6406;SDS011;3236;51.022;6.818;2022-08-26T13:59:41;6.60;;;2.58;;
6406;SDS011;3236;51.022;6.818;2022-08-26T14:02:09;8.95;;;2.70;;
6406;SDS011;3236;51.022;6.818;2022-08-26T14:04:36;8.93;;;2.50;;
6406;SDS011;3236;51.022;6.818;2022-08-26T14:07:03;8.90;;;3.00;;
6406;SDS011;3236;51.022;6.818;2022-08-26T14:09:30;6.55;;;2.70;;
6406;SDS011;3236;51.022;6.818;2022-08-26T14:11:57;6.60;;;3.08;;
6406;SDS011;3236;51.022;6.818;2022-08-26T14:14:26;7.07;;;2.30;;
6406;SDS011;3236;51.022;6.818;2022-08-26T14:16:54;7.60;;;2.60;;
6406;SDS011;3236;51.022;6.818;2022-08-26T14:19:22;9.75;;;2.95;;
6406;SDS011;3236;51.022;6.818;2022-08-26T14:21:49;6.63;;;3.20;;
6406;SDS011;3236;51.022;6.818;2022-08-26T14:24:16;13.88;;;4.10;;
6406;SDS011;3236;51.022;6.818;2022-08-26T14:26:46;6.55;;;2.67;;
6406;SDS011;3236;51.022;6.818;2022-08-26T14:29:14;9.02;;;2.38;;
6406;SDS011;3236;51.022;6.818;2022-08-26T14:31:42;6.63;;;2.90;;
6406;SDS011;3236;51.022;6.818;2022-08-26T14:34:09;13.57;;;2.95;;
6406;SDS011;3236;51.022;6.818;2022-08-26T14:36:39;8.45;;;2.90;;
6406;SDS011;3236;51.022;6.818;2022-08-26T14:39:07;7.95;;;2.28;;
6406;SDS011;3236;51.022;6.818;2022-08-26T14:41:37;10.05;;;2.72;;
6406;SDS011;3236;51.022;6.818;2022-08-26T14:44:07;11.83;;;2.53;;
6406;SDS011;3236;51.022;6.818;2022-08-26T14:46:40;4.88;;;1.77;;
6406;SDS011;3236;51.022;6.818;2022-08-26T14:49:10;12.00;;;2.75;;
6406;SDS011;3236;51.022;6.818;2022-08-26T14:51:38;13.23;;;2.70;;
6406;SDS011;3236;51.022;6.818;2022-08-26T14:54:06;7.30;;;3.38;;
6406;SDS011;3236;51.022;6.818;2022-08-26T14:56:42;4.95;;;2.80;;
6406;SDS011;3236;51.022;6.818;2022-08-26T14:59:12;10.63;;;2.67;;
6406;SDS011;3236;51.022;6.818;2022-08-26T15:01:39;10.25;;;2.60;;
6406;SDS011;3236;51.022;6.818;2022-08-26T15:04:11;9.30;;;3.15;;
6406;SDS011;3236;51.022;6.818;2022-08-26T15:06:38;13.57;;;2.50;;
6406;SDS011;3236;51.022;6.818;2022-08-26T15:09:06;10.95;;;2.10;;
6406;SDS011;3236;51.022;6.818;2022-08-26T15:11:34;6.63;;;2.30;;
6406;SDS011;3236;51.022;6.818;2022-08-26T15:14:02;7.53;;;3.05;;
6406;SDS011;3236;51.022;6.818;2022-08-26T15:16:30;10.45;;;2.42;;
6406;SDS011;3236;51.022;6.818;2022-08-26T15:18:59;6.70;;;2.83;;
6406;SDS011;3236;51.022;6.818;2022-08-26T15:21:32;7.80;;;2.78;;
6406;SDS011;3236;51.022;6.818;2022-08-26T15:24:01;8.13;;;2.50;;
6406;SDS011;3236;51.022;6.818;2022-08-26T15:26:32;10.55;;;3.80;;
6406;SDS011;3236;51.022;6.818;2022-08-26T15:29:06;8.20;;;2.78;;
6406;SDS011;3236;51.022;6.818;2022-08-26T15:31:33;10.85;;;2.83;;
6406;SDS011;3236;51.022;6.818;2022-08-26T15:34:02;7.70;;;3.80;;
6406;SDS011;3236;51.022;6.818;2022-08-26T15:36:33;10.35;;;3.08;;
6406;SDS011;3236;51.022;6.818;2022-08-26T15:39:02;8.45;;;2.42;;
6406;SDS011;3236;51.022;6.818;2022-08-26T15:41:33;15.10;;;3.17;;
6406;SDS011;3236;51.022;6.818;2022-08-26T15:44:02;10.02;;;2.85;;
6406;SDS011;3236;51.022;6.818;2022-08-26T15:46:30;5.95;;;2.40;;
6406;SDS011;3236;51.022;6.818;2022-08-26T15:49:03;10.27;;;2.80;;